createdAt,value
2022-10-18T00:00:51.995Z,10.55
2022-10-18T00:03:53.720Z,10.45
2022-10-18T00:06:55.581Z,10.48
2022-10-18T00:09:57.405Z,10.46
2022-10-18T00:12:59.152Z,10.43
2022-10-18T00:16:02.890Z,10.42
2022-10-18T00:19:04.638Z,10.37
2022-10-18T00:22:06.285Z,10.41
2022-10-18T00:25:09.304Z,10.39
2022-10-18T00:28:10.978Z,10.32
2022-10-18T00:31:16.041Z,10.27
2022-10-18T00:34:17.796Z,10.25
2022-10-18T00:37:19.512Z,10.16
2022-10-18T00:40:21.424Z,10.12
2022-10-18T00:43:23.111Z,10.11
2022-10-18T00:46:27.637Z,10.09
2022-10-18T00:49:35.841Z,10.04
2022-10-18T00:52:47.118Z,9.95
2022-10-18T00:55:49.215Z,9.90
2022-10-18T00:58:51.921Z,9.93
2022-10-18T01:01:53.779Z,9.96
2022-10-18T01:04:55.667Z,9.89
2022-10-18T01:08:06.563Z,9.94
2022-10-18T01:11:31.304Z,9.86
2022-10-18T01:14:51.411Z,9.88
2022-10-18T01:18:20.428Z,9.89
2022-10-18T01:21:37.969Z,9.90
2022-10-18T01:25:24.423Z,9.84
2022-10-18T01:28:50.854Z,9.78
2022-10-18T01:32:02.737Z,9.83
2022-10-18T01:35:18.977Z,9.71
2022-10-18T01:38:23.442Z,9.59
2022-10-18T01:41:27.112Z,9.69
2022-10-18T01:44:33.039Z,9.61
2022-10-18T01:47:36.285Z,9.52
2022-10-18T01:50:38.015Z,9.48
2022-10-18T01:53:39.752Z,9.53
2022-10-18T01:56:58.705Z,9.60
2022-10-18T02:00:14.846Z,9.55
2022-10-18T02:03:25.916Z,9.54
2022-10-18T02:06:31.857Z,9.56
2022-10-18T02:09:50.488Z,9.52
2022-10-18T02:12:54.917Z,9.47
2022-10-18T02:16:01.496Z,9.40
2022-10-18T02:19:14.211Z,9.31
2022-10-18T02:22:17.345Z,9.19
2022-10-18T02:25:24.284Z,9.17
2022-10-18T02:28:29.283Z,9.14
2022-10-18T02:31:49.563Z,9.16
2022-10-18T02:35:01.341Z,9.10
2022-10-18T02:38:05.056Z,9.07
2022-10-18T02:41:06.795Z,8.93
2022-10-18T02:44:09.457Z,8.82
2022-10-18T02:47:11.819Z,8.72
2022-10-18T02:50:14.349Z,8.60
2022-10-18T02:53:16.055Z,8.59
2022-10-18T02:56:17.855Z,8.52
2022-10-18T02:59:19.551Z,8.48
2022-10-18T03:02:21.295Z,8.45
2022-10-18T03:05:23.042Z,8.38
2022-10-18T03:08:24.960Z,8.28
2022-10-18T03:11:26.667Z,8.13
2022-10-18T03:14:28.379Z,8.02
2022-10-18T03:17:30.282Z,7.92
2022-10-18T03:20:33.279Z,7.81
2022-10-18T03:23:35.390Z,7.71
2022-10-18T03:26:37.203Z,7.66
2022-10-18T03:29:38.926Z,7.56
2022-10-18T03:32:40.696Z,7.45
2022-10-18T03:35:42.371Z,7.25
2022-10-18T03:38:44.161Z,7.17
2022-10-18T03:41:45.941Z,7.07
2022-10-18T03:44:47.697Z,6.98
2022-10-18T03:47:49.453Z,6.89
2022-10-18T03:50:51.215Z,6.81
2022-10-18T03:53:52.949Z,6.74
2022-10-18T03:56:54.652Z,6.64
2022-10-18T03:59:56.377Z,6.64
2022-10-18T04:02:58.139Z,6.61
2022-10-18T04:06:00.775Z,6.52
2022-10-18T04:09:04.246Z,6.47
2022-10-18T04:12:08.413Z,6.43
2022-10-18T04:15:10.619Z,6.34
2022-10-18T04:18:12.368Z,6.27
2022-10-18T04:21:14.193Z,6.23
2022-10-18T04:24:18.939Z,6.21
2022-10-18T04:27:20.634Z,6.13
2022-10-18T04:30:22.478Z,6.10
2022-10-18T04:33:24.194Z,6.04
2022-10-18T04:36:26.115Z,5.99
2022-10-18T04:39:27.909Z,5.96
2022-10-18T04:42:30.071Z,5.92
2022-10-18T04:45:31.812Z,5.89
2022-10-18T04:48:33.683Z,5.86
2022-10-18T04:51:35.385Z,5.82
2022-10-18T04:54:37.578Z,5.78
2022-10-18T04:57:39.308Z,5.75
2022-10-18T05:00:41.195Z,5.72
2022-10-18T05:03:42.990Z,5.65
2022-10-18T05:06:44.795Z,5.63
2022-10-18T05:09:46.559Z,5.61
2022-10-18T05:12:48.416Z,5.59
2022-10-18T05:15:50.175Z,5.52
2022-10-18T05:18:51.920Z,5.42
2022-10-18T05:21:53.661Z,5.26
2022-10-18T05:24:55.405Z,5.20
2022-10-18T05:27:57.211Z,5.14
2022-10-18T05:31:03.787Z,5.12
2022-10-18T05:34:05.445Z,5.17
2022-10-18T05:37:07.346Z,5.17
2022-10-18T05:40:09.737Z,5.22
2022-10-18T05:43:11.618Z,5.33
2022-10-18T05:46:15.547Z,5.36
2022-10-18T05:49:17.680Z,5.46
2022-10-18T05:52:19.600Z,5.39
2022-10-18T05:55:21.332Z,5.40
2022-10-18T05:58:23.079Z,5.52
2022-10-18T06:01:24.785Z,5.58
2022-10-18T06:04:26.493Z,5.58
2022-10-18T06:07:28.258Z,5.62
2022-10-18T06:10:29.984Z,5.61
2022-10-18T06:13:32.566Z,5.68
2022-10-18T06:19:37.240Z,5.87
2022-10-18T06:22:38.958Z,5.99
2022-10-18T06:25:40.792Z,6.07
2022-10-18T06:28:42.662Z,6.16
2022-10-18T06:31:44.363Z,6.18
2022-10-18T06:34:46.102Z,6.20
2022-10-18T06:37:47.889Z,6.39
2022-10-18T06:40:50.001Z,6.47
2022-10-18T06:43:56.828Z,6.75
2022-10-18T06:46:58.578Z,6.97
2022-10-18T06:50:00.542Z,7.14
2022-10-18T06:53:04.154Z,7.33
2022-10-18T06:56:13.615Z,7.44
2022-10-18T06:59:15.668Z,7.64
2022-10-18T07:02:17.886Z,7.76
2022-10-18T07:05:19.654Z,8.02
2022-10-18T07:08:21.476Z,8.22
2022-10-18T07:11:26.532Z,8.46
2022-10-18T07:14:29.233Z,8.58
2022-10-18T07:17:31.425Z,8.68
2022-10-18T07:20:33.817Z,8.77
2022-10-18T07:23:37.899Z,8.81
2022-10-18T07:26:39.642Z,8.91
2022-10-18T07:29:41.554Z,9.05
2022-10-18T07:32:43.300Z,9.11
2022-10-18T07:35:45.042Z,9.25
2022-10-18T07:38:46.962Z,9.45
2022-10-18T07:41:49.148Z,9.52
2022-10-18T07:44:50.989Z,9.58
2022-10-18T07:47:56.701Z,9.77
2022-10-18T07:51:00.715Z,9.92
2022-10-18T07:54:03.102Z,9.99
2022-10-18T07:57:05.251Z,10.13
2022-10-18T08:00:09.075Z,10.30
2022-10-18T08:03:13.304Z,10.37
2022-10-18T08:06:18.034Z,10.37
2022-10-18T08:09:19.762Z,10.34
2022-10-18T08:12:23.259Z,10.38
2022-10-18T08:15:26.345Z,10.41
2022-10-18T08:18:28.318Z,10.23
2022-10-18T08:21:30.095Z,10.38
2022-10-18T08:24:32.280Z,10.48
2022-10-18T08:27:34.301Z,10.59
2022-10-18T08:30:36.365Z,10.78
2022-10-18T08:33:39.697Z,10.82
2022-10-18T08:36:41.515Z,10.79
2022-10-18T08:39:43.518Z,10.91
2022-10-18T08:42:57.517Z,11.13
2022-10-18T08:45:59.744Z,11.34
2022-10-18T08:49:03.599Z,11.29
2022-10-18T08:52:20.892Z,11.52
2022-10-18T08:55:30.965Z,11.52
2022-10-18T08:58:34.580Z,11.45
2022-10-18T09:01:36.465Z,11.36
2022-10-18T09:05:03.479Z,11.66
2022-10-18T09:08:28.422Z,11.76
2022-10-18T09:12:01.880Z,11.71
2022-10-18T09:15:07.538Z,11.84
2022-10-18T09:18:19.608Z,11.74
2022-10-18T09:21:30.639Z,12.02
2022-10-18T09:25:06.361Z,12.12
2022-10-18T09:28:13.939Z,11.99
2022-10-18T09:31:24.659Z,12.14
2022-10-18T09:34:37.329Z,12.34
2022-10-18T09:37:39.900Z,12.48
2022-10-18T09:41:05.465Z,12.60
2022-10-18T09:44:22.943Z,12.73
2022-10-18T09:50:42.477Z,12.74
2022-10-18T09:54:03.666Z,12.93
2022-10-18T09:57:11.901Z,12.91
2022-10-18T10:00:25.899Z,13.05
2022-10-18T10:03:27.594Z,13.17
2022-10-18T10:06:38.711Z,13.18
2022-10-18T10:09:46.643Z,13.19
2022-10-18T10:13:02.040Z,13.37
2022-10-18T10:16:04.005Z,13.40
2022-10-18T10:19:05.763Z,13.38
2022-10-18T10:22:12.023Z,13.59
2022-10-18T10:25:30.833Z,13.67
2022-10-18T10:28:43.651Z,13.67
2022-10-18T10:31:45.433Z,13.71
2022-10-18T10:34:47.202Z,13.67
2022-10-18T10:37:53.560Z,13.86
2022-10-18T10:40:55.630Z,14.03
2022-10-18T10:43:57.733Z,14.01
2022-10-18T10:46:59.941Z,14.20
2022-10-18T10:50:11.523Z,14.36
2022-10-18T10:53:28.264Z,14.44
2022-10-18T10:56:33.725Z,14.52
2022-10-18T10:59:51.265Z,14.53
2022-10-18T11:03:28.005Z,14.56
2022-10-18T11:06:37.548Z,14.54
2022-10-18T11:09:44.059Z,14.70
2022-10-18T11:13:10.008Z,14.66
2022-10-18T11:16:23.389Z,14.67
2022-10-18T11:19:40.332Z,14.61
2022-10-18T11:22:50.402Z,14.72
2022-10-18T11:26:10.935Z,14.92
2022-10-18T11:29:22.467Z,15.09
2022-10-18T11:32:53.387Z,15.04
2022-10-18T11:36:03.642Z,15.15
2022-10-18T11:39:19.331Z,15.27
2022-10-18T11:42:54.313Z,15.29
2022-10-18T11:46:22.135Z,15.30
2022-10-18T11:50:01.077Z,15.34
2022-10-18T11:53:05.824Z,15.47
2022-10-18T11:56:10.263Z,15.48
2022-10-18T11:59:49.470Z,15.45
2022-10-18T12:03:12.702Z,15.63
2022-10-18T12:06:19.431Z,15.69
2022-10-18T12:09:28.615Z,15.71
2022-10-18T12:12:36.027Z,15.66
2022-10-18T12:15:40.676Z,15.80
2022-10-18T12:22:18.348Z,15.97
2022-10-18T12:25:20.389Z,15.86
2022-10-18T12:28:35.793Z,15.91
2022-10-18T12:31:44.472Z,15.88
2022-10-18T12:34:54.582Z,15.89
2022-10-18T12:38:09.447Z,15.96
2022-10-18T12:41:21.878Z,16.02
2022-10-18T12:44:31.157Z,15.99
2022-10-18T12:47:33.593Z,16.03
2022-10-18T12:50:44.037Z,16.08
2022-10-18T12:53:55.051Z,16.07
2022-10-18T12:56:58.562Z,16.12
2022-10-18T13:00:00.331Z,16.13
2022-10-18T13:03:17.781Z,16.21
2022-10-18T13:06:19.936Z,16.18
2022-10-18T13:09:21.760Z,16.21
2022-10-18T13:12:23.406Z,16.20
2022-10-18T13:15:44.448Z,16.29
2022-10-18T13:18:48.930Z,16.28
2022-10-18T13:22:24.927Z,16.28
2022-10-18T13:25:54.390Z,16.27
2022-10-18T13:29:34.722Z,16.24
2022-10-18T13:32:53.613Z,16.21
2022-10-18T13:36:04.158Z,16.21
2022-10-18T13:39:06.205Z,16.21
2022-10-18T13:42:31.088Z,16.18
2022-10-18T13:45:33.077Z,16.17
2022-10-18T13:48:35.048Z,16.20
2022-10-18T13:51:54.975Z,16.25
2022-10-18T13:55:14.674Z,16.27
2022-10-18T13:58:34.983Z,16.19
2022-10-18T14:01:46.546Z,16.19
2022-10-18T14:05:23.868Z,16.17
2022-10-18T14:08:36.262Z,16.16
2022-10-18T14:12:25.626Z,16.15
2022-10-18T14:15:33.858Z,16.08
2022-10-18T14:18:40.848Z,16.04
2022-10-18T14:21:51.119Z,16.02
2022-10-18T14:24:58.012Z,16.03
2022-10-18T14:28:12.493Z,16.00
2022-10-18T14:31:16.842Z,15.92
2022-10-18T14:34:18.884Z,15.88
2022-10-18T14:37:27.483Z,15.86
2022-10-18T14:40:40.427Z,15.77
2022-10-18T14:43:43.332Z,15.69
2022-10-18T14:46:58.484Z,15.67
2022-10-18T14:50:01.053Z,15.53
2022-10-18T14:53:09.243Z,15.50
2022-10-18T14:56:30.360Z,15.44
2022-10-18T14:59:51.721Z,15.37
2022-10-18T15:02:53.566Z,15.22
2022-10-18T15:05:59.543Z,15.12
2022-10-18T15:09:04.381Z,15.08
2022-10-18T15:12:07.184Z,15.03
2022-10-18T15:15:20.521Z,14.90
2022-10-18T15:18:28.015Z,14.77
2022-10-18T15:21:30.124Z,14.64
2022-10-18T15:24:37.585Z,14.59
2022-10-18T15:27:40.200Z,14.41
2022-10-18T15:30:43.205Z,14.28
2022-10-18T15:33:45.241Z,14.14
2022-10-18T15:36:47.938Z,14.02
2022-10-18T15:40:16.547Z,13.93
2022-10-18T15:43:24.196Z,13.78
2022-10-18T15:46:32.232Z,13.64
2022-10-18T15:49:48.818Z,13.52
2022-10-18T15:52:50.582Z,13.39
2022-10-18T15:56:02.517Z,13.24
2022-10-18T15:59:20.849Z,13.09
2022-10-18T16:02:22.638Z,12.92
2022-10-18T16:05:25.774Z,12.77
2022-10-18T16:08:30.825Z,12.64
2022-10-18T16:11:32.663Z,12.47
2022-10-18T16:14:35.158Z,12.35
2022-10-18T16:17:37.048Z,12.24
2022-10-18T16:20:38.817Z,12.16
2022-10-18T16:23:40.535Z,12.07
2022-10-18T16:26:42.483Z,12.05
2022-10-18T16:29:44.226Z,11.96
2022-10-18T16:32:46.580Z,11.90
2022-10-18T16:35:48.552Z,11.82
2022-10-18T16:38:51.151Z,11.79
2022-10-18T16:41:52.987Z,11.79
2022-10-18T16:44:55.076Z,11.79
2022-10-18T16:47:56.802Z,11.78
2022-10-18T16:50:59.125Z,11.80
2022-10-18T16:54:00.825Z,11.78
2022-10-18T16:57:02.547Z,11.77
2022-10-18T17:00:04.916Z,11.74
2022-10-18T17:03:07.291Z,11.75
2022-10-18T17:06:24.046Z,11.76
2022-10-18T17:09:25.678Z,11.75
2022-10-18T17:12:27.374Z,11.63
2022-10-18T17:15:32.839Z,11.63
2022-10-18T17:18:37.238Z,11.65
2022-10-18T17:21:38.947Z,11.70
2022-10-18T17:24:40.680Z,11.69
2022-10-18T17:27:42.547Z,11.65
2022-10-18T17:30:44.881Z,11.66
2022-10-18T17:33:46.627Z,11.63
2022-10-18T17:36:50.862Z,11.62
2022-10-18T17:39:52.692Z,11.57
2022-10-18T17:42:54.532Z,11.55
2022-10-18T17:45:56.893Z,11.52
2022-10-18T17:48:58.732Z,11.46
2022-10-18T17:52:06.013Z,11.44
2022-10-18T17:55:09.400Z,11.41
2022-10-18T17:58:11.100Z,11.38
2022-10-18T18:01:18.559Z,11.38
2022-10-18T18:04:20.283Z,11.29
2022-10-18T18:07:21.923Z,11.22
2022-10-18T18:10:23.744Z,11.15
2022-10-18T18:13:25.429Z,11.07
2022-10-18T18:16:29.569Z,11.03
2022-10-18T18:19:31.820Z,10.96
2022-10-18T18:22:36.037Z,10.89
2022-10-18T18:25:39.616Z,10.84
2022-10-18T18:28:41.659Z,10.74
2022-10-18T18:31:43.974Z,10.65
2022-10-18T18:34:45.765Z,10.56
2022-10-18T18:37:50.523Z,10.53
2022-10-18T18:41:16.385Z,10.50
2022-10-18T18:44:20.189Z,10.40
2022-10-18T18:47:23.550Z,10.30
2022-10-18T18:50:25.508Z,10.23
2022-10-18T18:53:29.495Z,10.17
2022-10-18T18:56:31.439Z,10.14
2022-10-18T18:59:33.455Z,10.13
2022-10-18T19:02:35.133Z,10.10
2022-10-18T19:05:37.115Z,10.06
2022-10-18T19:08:40.432Z,10.05
2022-10-18T19:11:42.298Z,10.05
2022-10-18T19:14:44.041Z,10.11
2022-10-18T19:17:45.757Z,10.06
2022-10-18T19:20:47.446Z,10.05
2022-10-18T19:23:50.288Z,10.01
2022-10-18T19:26:55.257Z,10.04
2022-10-18T19:29:57.000Z,9.97
2022-10-18T19:33:04.247Z,9.91
2022-10-18T19:36:06.395Z,9.87
2022-10-18T19:39:11.822Z,9.90
2022-10-18T19:42:18.583Z,9.87
2022-10-18T19:45:24.544Z,9.80
2022-10-18T19:48:26.299Z,9.72
2022-10-18T19:51:28.605Z,9.67
2022-10-18T19:54:30.553Z,9.63
2022-10-18T19:57:32.180Z,9.61
2022-10-18T20:00:33.886Z,9.57
2022-10-18T20:03:35.710Z,9.61
2022-10-18T20:06:39.023Z,9.65
2022-10-18T20:09:40.777Z,9.69
2022-10-18T20:12:42.503Z,9.71
2022-10-18T20:15:46.975Z,9.76
2022-10-18T20:18:49.054Z,9.73
2022-10-18T20:21:50.832Z,9.74
2022-10-18T20:24:52.710Z,9.78
2022-10-18T20:27:54.377Z,9.81
2022-10-18T20:31:06.978Z,9.86
2022-10-18T20:34:11.733Z,9.84
2022-10-18T20:37:13.413Z,9.75
2022-10-18T20:40:15.835Z,9.69
2022-10-18T20:43:18.049Z,9.59
2022-10-18T20:46:20.578Z,9.51
2022-10-18T20:49:22.330Z,9.44
2022-10-18T20:52:24.468Z,9.43
2022-10-18T20:55:28.613Z,9.39
2022-10-18T20:58:30.290Z,9.36
2022-10-18T21:01:33.702Z,9.34
2022-10-18T21:04:36.703Z,9.30
2022-10-18T21:07:40.544Z,9.28
2022-10-18T21:10:42.207Z,9.27
2022-10-18T21:13:43.947Z,9.25
2022-10-18T21:16:46.447Z,9.31
2022-10-18T21:19:48.234Z,9.37
2022-10-18T21:22:51.689Z,9.43
2022-10-18T21:25:53.503Z,9.49
2022-10-18T21:29:00.712Z,9.58
2022-10-18T21:32:02.802Z,9.58
2022-10-18T21:35:05.154Z,9.77
2022-10-18T21:38:06.851Z,10.11
2022-10-18T21:41:10.274Z,10.55
2022-10-18T21:44:12.259Z,11.10
2022-10-18T21:47:15.369Z,11.28
2022-10-18T21:50:17.164Z,11.54
2022-10-18T21:53:19.060Z,11.71
2022-10-18T21:56:34.789Z,11.84
2022-10-18T21:59:36.443Z,12.08
2022-10-18T22:02:38.267Z,12.07
2022-10-18T22:05:40.052Z,12.03
2022-10-18T22:08:43.590Z,12.09
2022-10-18T22:11:49.016Z,12.17
2022-10-18T22:14:50.736Z,12.18
2022-10-18T22:17:52.386Z,12.05
2022-10-18T22:21:08.495Z,12.07
2022-10-18T22:24:10.461Z,12.00
2022-10-18T22:27:12.140Z,11.96
2022-10-18T22:30:13.874Z,12.03
2022-10-18T22:33:15.558Z,11.96
2022-10-18T22:36:17.296Z,12.04
2022-10-18T22:39:19.258Z,11.93
2022-10-18T22:42:20.943Z,11.96
2022-10-18T22:45:22.718Z,12.06
2022-10-18T22:48:24.412Z,11.99
2022-10-18T22:51:26.617Z,12.03
2022-10-18T22:54:28.344Z,12.03
2022-10-18T22:57:30.173Z,12.13
2022-10-18T23:00:31.940Z,12.20
2022-10-18T23:03:34.506Z,12.34
2022-10-18T23:06:36.524Z,12.37
2022-10-18T23:09:38.298Z,12.38
2022-10-18T23:12:39.982Z,12.44
2022-10-18T23:15:41.786Z,12.48
2022-10-18T23:18:43.838Z,12.50
2022-10-18T23:21:45.591Z,12.57
2022-10-18T23:24:47.420Z,12.53
2022-10-18T23:27:49.122Z,12.54
2022-10-18T23:30:50.933Z,12.52
2022-10-18T23:33:55.211Z,12.63
2022-10-18T23:36:56.978Z,12.67
2022-10-18T23:39:59.490Z,12.72
2022-10-18T23:43:01.184Z,12.71
2022-10-18T23:46:03.300Z,12.66
2022-10-18T23:49:05.004Z,12.62
2022-10-18T23:52:06.847Z,12.58
2022-10-18T23:55:08.758Z,12.60
2022-10-18T23:58:10.603Z,12.60
